sensor_id;sensor_type;location;lat;lon;timestamp;pressure;altitude;pressure_sealevel;temperature;humidity
42105;BME280;70664;51.472;5.712;2024-03-06T00:01:05;101581.03;;;17.02;66.39
42105;BME280;70664;51.472;5.712;2024-03-06T00:03:32;101587.13;;;16.98;66.62
42105;BME280;70664;51.472;5.712;2024-03-06T00:05:58;101583.69;;;16.96;66.17
42105;BME280;70664;51.472;5.712;2024-03-06T00:08:25;101593.25;;;16.92;66.65
42105;BME280;70664;51.472;5.712;2024-03-06T00:10:51;101595.00;;;16.89;66.75
42105;BME280;70664;51.472;5.712;2024-03-06T00:13:17;101595.06;;;16.86;66.39
42105;BME280;70664;51.472;5.712;2024-03-06T00:15:43;101595.94;;;16.85;66.54
42105;BME280;70664;51.472;5.712;2024-03-06T00:18:09;101604.63;;;16.81;66.69
42105;BME280;70664;51.472;5.712;2024-03-06T00:20:35;101602.91;;;16.80;66.72
42105;BME280;70664;51.472;5.712;2024-03-06T00:23:01;101604.66;;;16.77;66.61
42105;BME280;70664;51.472;5.712;2024-03-06T00:25:28;101613.31;;;16.75;66.45
42105;BME280;70664;51.472;5.712;2024-03-06T00:28:01;101611.59;;;16.74;66.51
42105;BME280;70664;51.472;5.712;2024-03-06T00:30:27;101611.66;;;16.71;66.71
42105;BME280;70664;51.472;5.712;2024-03-06T00:32:55;101615.13;;;16.70;66.59
42105;BME280;70664;51.472;5.712;2024-03-06T00:35:21;101620.34;;;16.67;66.57
42105;BME280;70664;51.472;5.712;2024-03-06T00:37:47;101618.63;;;16.66;66.41
42105;BME280;70664;51.472;5.712;2024-03-06T00:40:13;101619.50;;;16.65;66.49
42105;BME280;70664;51.472;5.712;2024-03-06T00:42:39;101618.66;;;16.62;66.53
42105;BME280;70664;51.472;5.712;2024-03-06T00:45:07;101616.03;;;16.61;66.62
42105;BME280;70664;51.472;5.712;2024-03-06T00:47:33;101625.56;;;16.59;66.51
42105;BME280;70664;51.472;5.712;2024-03-06T00:50:00;101625.56;;;16.59;66.68
42105;BME280;70664;51.472;5.712;2024-03-06T00:52:26;101630.81;;;16.57;66.73
42105;BME280;70664;51.472;5.712;2024-03-06T00:54:52;101636.88;;;16.56;66.48
42105;BME280;70664;51.472;5.712;2024-03-06T00:57:18;101633.41;;;16.54;66.69
42105;BME280;70664;51.472;5.712;2024-03-06T00:59:46;101627.38;;;16.52;66.38
42105;BME280;70664;51.472;5.712;2024-03-06T01:02:11;101630.84;;;16.51;66.41
42105;BME280;70664;51.472;5.712;2024-03-06T01:04:40;101631.75;;;16.48;66.38
42105;BME280;70664;51.472;5.712;2024-03-06T01:07:07;101635.22;;;16.47;66.71
42105;BME280;70664;51.472;5.712;2024-03-06T01:09:32;101631.78;;;16.45;66.66
42105;BME280;70664;51.472;5.712;2024-03-06T01:11:58;101640.44;;;16.44;66.25
42105;BME280;70664;51.472;5.712;2024-03-06T01:14:24;101641.28;;;16.45;66.50
42105;BME280;70664;51.472;5.712;2024-03-06T01:16:50;101643.06;;;16.43;66.60
42105;BME280;70664;51.472;5.712;2024-03-06T01:19:15;101635.25;;;16.41;66.17
42105;BME280;70664;51.472;5.712;2024-03-06T01:21:41;101636.13;;;16.42;66.19
42105;BME280;70664;51.472;5.712;2024-03-06T01:24:07;101638.75;;;16.39;66.58
42105;BME280;70664;51.472;5.712;2024-03-06T01:26:33;101647.41;;;16.38;66.60
42105;BME280;70664;51.472;5.712;2024-03-06T01:28:58;101643.94;;;16.37;66.24
42105;BME280;70664;51.472;5.712;2024-03-06T01:31:24;101656.06;;;16.37;66.55
42105;BME280;70664;51.472;5.712;2024-03-06T01:33:50;101657.81;;;16.35;66.55
42105;BME280;70664;51.472;5.712;2024-03-06T01:36:16;101657.81;;;16.33;66.34
42105;BME280;70664;51.472;5.712;2024-03-06T01:38:42;101662.13;;;16.34;66.40
42105;BME280;70664;51.472;5.712;2024-03-06T01:41:10;101664.75;;;16.31;66.16
42105;BME280;70664;51.472;5.712;2024-03-06T01:43:39;101667.38;;;16.29;66.41
42105;BME280;70664;51.472;5.712;2024-03-06T01:46:05;101666.53;;;16.29;65.91
42105;BME280;70664;51.472;5.712;2024-03-06T01:48:31;101667.38;;;16.28;66.34
42105;BME280;70664;51.472;5.712;2024-03-06T01:51:02;101664.78;;;16.26;66.28
42105;BME280;70664;51.472;5.712;2024-03-06T01:53:32;101663.06;;;16.25;66.00
42105;BME280;70664;51.472;5.712;2024-03-06T01:55:59;101657.91;;;16.24;65.97
42105;BME280;70664;51.472;5.712;2024-03-06T01:58:26;101664.81;;;16.23;66.24
42105;BME280;70664;51.472;5.712;2024-03-06T02:00:52;101670.88;;;16.22;65.99
42105;BME280;70664;51.472;5.712;2024-03-06T02:03:23;101670.88;;;16.19;66.25
42105;BME280;70664;51.472;5.712;2024-03-06T02:05:59;101670.88;;;16.19;65.94
42105;BME280;70664;51.472;5.712;2024-03-06T02:08:27;101675.22;;;16.18;66.08
42105;BME280;70664;51.472;5.712;2024-03-06T02:10:59;101686.47;;;16.17;66.21
42105;BME280;70664;51.472;5.712;2024-03-06T02:13:33;101687.38;;;16.15;66.11
42105;BME280;70664;51.472;5.712;2024-03-06T02:15:59;101683.06;;;16.14;65.99
42105;BME280;70664;51.472;5.712;2024-03-06T02:18:25;101691.69;;;16.13;66.07
42105;BME280;70664;51.472;5.712;2024-03-06T02:20:51;101691.69;;;16.13;65.76
42105;BME280;70664;51.472;5.712;2024-03-06T02:23:17;101690.81;;;16.12;65.98
42105;BME280;70664;51.472;5.712;2024-03-06T02:25:47;101692.56;;;16.12;65.73
42105;BME280;70664;51.472;5.712;2024-03-06T02:28:14;101690.84;;;16.09;65.83
42105;BME280;70664;51.472;5.712;2024-03-06T02:30:39;101696.91;;;16.10;66.07
42105;BME280;70664;51.472;5.712;2024-03-06T02:33:06;101695.19;;;16.09;65.83
42105;BME280;70664;51.472;5.712;2024-03-06T02:35:34;101701.25;;;16.08;66.00
42105;BME280;70664;51.472;5.712;2024-03-06T02:38:03;101700.38;;;16.06;65.96
42105;BME280;70664;51.472;5.712;2024-03-06T02:40:31;101696.91;;;16.05;65.78
42105;BME280;70664;51.472;5.712;2024-03-06T02:42:57;101698.66;;;16.05;65.64
42105;BME280;70664;51.472;5.712;2024-03-06T02:45:23;101696.94;;;16.03;65.57
42105;BME280;70664;51.472;5.712;2024-03-06T02:47:49;101694.38;;;16.02;65.62
42105;BME280;70664;51.472;5.712;2024-03-06T02:50:15;101693.50;;;16.00;65.96
42105;BME280;70664;51.472;5.712;2024-03-06T02:52:41;101692.66;;;16.01;65.80
42105;BME280;70664;51.472;5.712;2024-03-06T02:55:07;101690.03;;;15.99;65.50
42105;BME280;70664;51.472;5.712;2024-03-06T02:57:33;101684.00;;;15.97;65.75
42105;BME280;70664;51.472;5.712;2024-03-06T02:59:59;101686.59;;;15.97;65.86
42105;BME280;70664;51.472;5.712;2024-03-06T03:02:25;101688.34;;;15.97;65.75
42105;BME280;70664;51.472;5.712;2024-03-06T03:04:51;101685.75;;;15.94;65.45
42105;BME280;70664;51.472;5.712;2024-03-06T03:07:21;101688.34;;;15.94;65.62
42105;BME280;70664;51.472;5.712;2024-03-06T03:09:47;101684.88;;;15.95;65.78
42105;BME280;70664;51.472;5.712;2024-03-06T03:12:13;101689.22;;;15.93;65.60
42105;BME280;70664;51.472;5.712;2024-03-06T03:14:42;101686.63;;;15.91;65.60
42105;BME280;70664;51.472;5.712;2024-03-06T03:17:08;101694.41;;;15.91;65.45
42105;BME280;70664;51.472;5.712;2024-03-06T03:19:34;101689.22;;;15.90;65.70
42105;BME280;70664;51.472;5.712;2024-03-06T03:22:00;101691.84;;;15.88;65.66
42105;BME280;70664;51.472;5.712;2024-03-06T03:24:30;101698.75;;;15.89;65.31
42105;BME280;70664;51.472;5.712;2024-03-06T03:26:56;101696.16;;;15.87;65.39
42105;BME280;70664;51.472;5.712;2024-03-06T03:29:22;101695.31;;;15.87;65.34
42105;BME280;70664;51.472;5.712;2024-03-06T03:31:48;101695.28;;;15.85;65.43
42105;BME280;70664;51.472;5.712;2024-03-06T03:34:14;101700.47;;;15.84;65.38
42105;BME280;70664;51.472;5.712;2024-03-06T03:36:43;101697.00;;;15.83;65.32
42105;BME280;70664;51.472;5.712;2024-03-06T03:39:12;101696.16;;;15.83;65.30
42105;BME280;70664;51.472;5.712;2024-03-06T03:41:48;101703.94;;;15.83;65.33
42105;BME280;70664;51.472;5.712;2024-03-06T03:44:15;101710.00;;;15.82;65.33
42105;BME280;70664;51.472;5.712;2024-03-06T03:46:44;101710.84;;;15.81;65.34
42105;BME280;70664;51.472;5.712;2024-03-06T03:49:10;101709.13;;;15.80;65.13
42105;BME280;70664;51.472;5.712;2024-03-06T03:51:37;101708.28;;;15.78;65.07
42105;BME280;70664;51.472;5.712;2024-03-06T03:54:03;101713.44;;;15.79;65.40
42105;BME280;70664;51.472;5.712;2024-03-06T03:56:33;101710.88;;;15.78;65.24
42105;BME280;70664;51.472;5.712;2024-03-06T03:59:02;101710.84;;;15.76;65.43
42105;BME280;70664;51.472;5.712;2024-03-06T04:01:30;101708.28;;;15.75;65.30
42105;BME280;70664;51.472;5.712;2024-03-06T04:03:56;101710.03;;;15.74;65.34
42105;BME280;70664;51.472;5.712;2024-03-06T04:06:22;101716.09;;;15.73;65.11
42105;BME280;70664;51.472;5.712;2024-03-06T04:08:48;101715.22;;;15.74;65.31
42105;BME280;70664;51.472;5.712;2024-03-06T04:11:14;101712.63;;;15.72;65.20
42105;BME280;70664;51.472;5.712;2024-03-06T04:13:40;101718.66;;;15.71;64.91
42105;BME280;70664;51.472;5.712;2024-03-06T04:16:06;101728.19;;;15.71;65.22
42105;BME280;70664;51.472;5.712;2024-03-06T04:18:33;101726.44;;;15.68;65.26
42105;BME280;70664;51.472;5.712;2024-03-06T04:21:05;101734.22;;;15.68;65.23
42105;BME280;70664;51.472;5.712;2024-03-06T04:23:34;101728.19;;;15.68;64.97
42105;BME280;70664;51.472;5.712;2024-03-06T04:26:01;101733.38;;;15.66;65.05
42105;BME280;70664;51.472;5.712;2024-03-06T04:28:27;101736.84;;;15.67;65.16
42105;BME280;70664;51.472;5.712;2024-03-06T04:30:54;101735.09;;;15.67;64.96
42105;BME280;70664;51.472;5.712;2024-03-06T04:33:20;101739.41;;;15.65;64.91
42105;BME280;70664;51.472;5.712;2024-03-06T04:35:46;101739.41;;;15.65;65.05
42105;BME280;70664;51.472;5.712;2024-03-06T04:38:11;101742.03;;;15.64;65.04
42105;BME280;70664;51.472;5.712;2024-03-06T04:40:37;101743.75;;;15.62;65.16
42105;BME280;70664;51.472;5.712;2024-03-06T04:43:03;101748.09;;;15.61;64.92
42105;BME280;70664;51.472;5.712;2024-03-06T04:45:29;101752.38;;;15.62;64.94
42105;BME280;70664;51.472;5.712;2024-03-06T04:47:55;101761.91;;;15.62;65.05
42105;BME280;70664;51.472;5.712;2024-03-06T04:50:21;101761.94;;;15.60;64.75
42105;BME280;70664;51.472;5.712;2024-03-06T04:52:47;101762.78;;;15.61;65.06
42105;BME280;70664;51.472;5.712;2024-03-06T04:55:13;101767.09;;;15.58;64.73
42105;BME280;70664;51.472;5.712;2024-03-06T04:57:44;101774.03;;;15.58;65.00
42105;BME280;70664;51.472;5.712;2024-03-06T05:00:11;101775.75;;;15.56;65.04
42105;BME280;70664;51.472;5.712;2024-03-06T05:02:38;101784.38;;;15.56;64.99
42105;BME280;70664;51.472;5.712;2024-03-06T05:05:04;101782.66;;;15.55;64.76
42105;BME280;70664;51.472;5.712;2024-03-06T05:07:31;101789.56;;;15.53;64.69
42105;BME280;70664;51.472;5.712;2024-03-06T05:09:58;101798.22;;;15.54;64.89
42105;BME280;70664;51.472;5.712;2024-03-06T05:12:27;101802.53;;;15.53;64.71
42105;BME280;70664;51.472;5.712;2024-03-06T05:14:55;101801.69;;;15.53;64.46
42105;BME280;70664;51.472;5.712;2024-03-06T05:17:21;101797.38;;;15.52;64.60
42105;BME280;70664;51.472;5.712;2024-03-06T05:19:48;101799.09;;;15.50;64.82
42105;BME280;70664;51.472;5.712;2024-03-06T05:22:16;101807.72;;;15.50;64.74
42105;BME280;70664;51.472;5.712;2024-03-06T05:24:43;101804.25;;;15.48;64.48
42105;BME280;70664;51.472;5.712;2024-03-06T05:27:09;101812.03;;;15.48;64.80
42105;BME280;70664;51.472;5.712;2024-03-06T05:29:38;101811.19;;;15.48;64.60
42105;BME280;70664;51.472;5.712;2024-03-06T05:32:05;101819.81;;;15.47;64.70
42105;BME280;70664;51.472;5.712;2024-03-06T05:34:33;101812.91;;;15.46;64.82
42105;BME280;70664;51.472;5.712;2024-03-06T05:37:00;101812.94;;;15.44;64.82
42105;BME280;70664;51.472;5.712;2024-03-06T05:39:27;101817.25;;;15.45;64.36
42105;BME280;70664;51.472;5.712;2024-03-06T05:42:04;101824.16;;;15.43;64.66
42105;BME280;70664;51.472;5.712;2024-03-06T05:44:33;101824.16;;;15.40;64.54
42105;BME280;70664;51.472;5.712;2024-03-06T05:47:01;101825.88;;;15.41;64.59
42105;BME280;70664;51.472;5.712;2024-03-06T05:49:28;101830.19;;;15.40;64.53
42105;BME280;70664;51.472;5.712;2024-03-06T05:51:55;101836.25;;;15.39;64.53
42105;BME280;70664;51.472;5.712;2024-03-06T05:54:21;101836.25;;;15.39;64.69
42105;BME280;70664;51.472;5.712;2024-03-06T05:56:51;101841.44;;;15.38;64.64
42105;BME280;70664;51.472;5.712;2024-03-06T05:59:18;101843.16;;;15.39;64.56
42105;BME280;70664;51.472;5.712;2024-03-06T06:01:44;101850.06;;;15.37;64.52
42105;BME280;70664;51.472;5.712;2024-03-06T06:04:11;101845.75;;;15.36;64.54
42105;BME280;70664;51.472;5.712;2024-03-06T06:06:37;101854.38;;;15.35;64.41
42105;BME280;70664;51.472;5.712;2024-03-06T06:09:03;101851.81;;;15.35;64.53
42105;BME280;70664;51.472;5.712;2024-03-06T06:11:33;101860.41;;;15.35;64.54
42105;BME280;70664;51.472;5.712;2024-03-06T06:13:59;101863.03;;;15.34;64.39
42105;BME280;70664;51.472;5.712;2024-03-06T06:16:25;101863.03;;;15.34;64.41
42105;BME280;70664;51.472;5.712;2024-03-06T06:18:51;101870.81;;;15.32;64.36
42105;BME280;70664;51.472;5.712;2024-03-06T06:21:17;101875.13;;;15.32;64.03
42105;BME280;70664;51.472;5.712;2024-03-06T06:23:44;101876.84;;;15.31;64.20
42105;BME280;70664;51.472;5.712;2024-03-06T06:26:10;101871.69;;;15.31;64.13
42105;BME280;70664;51.472;5.712;2024-03-06T06:28:41;101867.34;;;15.30;64.51
42105;BME280;70664;51.472;5.712;2024-03-06T06:31:08;101867.34;;;15.30;64.28
42105;BME280;70664;51.472;5.712;2024-03-06T06:33:33;101862.16;;;15.28;64.05
42105;BME280;70664;51.472;5.712;2024-03-06T06:35:59;101872.53;;;15.28;64.03
42105;BME280;70664;51.472;5.712;2024-03-06T06:38:25;101876.84;;;15.26;64.18
42105;BME280;70664;51.472;5.712;2024-03-06T06:40:51;101884.59;;;15.26;64.17
42105;BME280;70664;51.472;5.712;2024-03-06T06:43:18;101883.75;;;15.26;63.97
42105;BME280;70664;51.472;5.712;2024-03-06T06:45:43;101889.78;;;15.26;64.09
42105;BME280;70664;51.472;5.712;2024-03-06T06:48:09;101893.25;;;15.25;64.11
42105;BME280;70664;51.472;5.712;2024-03-06T06:50:35;101904.47;;;15.24;64.50
42105;BME280;70664;51.472;5.712;2024-03-06T06:53:01;101909.66;;;15.24;64.06
42105;BME280;70664;51.472;5.712;2024-03-06T06:55:27;101907.06;;;15.23;64.26
42105;BME280;70664;51.472;5.712;2024-03-06T06:57:53;101906.19;;;15.22;64.29
42105;BME280;70664;51.472;5.712;2024-03-06T07:00:19;101909.66;;;15.21;64.02
42105;BME280;70664;51.472;5.712;2024-03-06T07:02:47;101915.72;;;15.22;64.14
42105;BME280;70664;51.472;5.712;2024-03-06T07:05:14;101922.59;;;15.21;64.21
42105;BME280;70664;51.472;5.712;2024-03-06T07:07:40;101914.81;;;15.21;64.01
42105;BME280;70664;51.472;5.712;2024-03-06T07:10:07;101924.34;;;15.21;64.08
42105;BME280;70664;51.472;5.712;2024-03-06T07:12:35;101926.03;;;15.20;63.85
42105;BME280;70664;51.472;5.712;2024-03-06T07:15:01;101936.41;;;15.20;64.05
42105;BME280;70664;51.472;5.712;2024-03-06T07:17:28;101932.09;;;15.21;63.88
42105;BME280;70664;51.472;5.712;2024-03-06T07:19:54;101933.81;;;15.20;64.12
42105;BME280;70664;51.472;5.712;2024-03-06T07:22:20;101932.97;;;15.20;64.13
42105;BME280;70664;51.472;5.712;2024-03-06T07:24:46;101934.72;;;15.19;64.14
42105;BME280;70664;51.472;5.712;2024-03-06T07:27:12;101934.69;;;15.21;64.07
42105;BME280;70664;51.472;5.712;2024-03-06T07:29:38;101943.31;;;15.21;63.80
42105;BME280;70664;51.472;5.712;2024-03-06T07:32:04;101948.50;;;15.24;63.66
42105;BME280;70664;51.472;5.712;2024-03-06T07:34:33;101953.69;;;15.23;63.85
42105;BME280;70664;51.472;5.712;2024-03-06T07:36:59;101948.50;;;15.24;63.75
42105;BME280;70664;51.472;5.712;2024-03-06T07:39:26;101959.75;;;15.25;63.46
42105;BME280;70664;51.472;5.712;2024-03-06T07:41:52;101961.47;;;15.24;63.88
42105;BME280;70664;51.472;5.712;2024-03-06T07:44:18;101963.19;;;15.25;63.59
42105;BME280;70664;51.472;5.712;2024-03-06T07:46:44;101965.78;;;15.25;63.54
42105;BME280;70664;51.472;5.712;2024-03-06T07:49:09;101967.53;;;15.26;63.87
42105;BME280;70664;51.472;5.712;2024-03-06T07:51:35;101965.81;;;15.27;63.52
42105;BME280;70664;51.472;5.712;2024-03-06T07:54:02;101977.03;;;15.27;63.41
42105;BME280;70664;51.472;5.712;2024-03-06T07:56:29;101975.28;;;15.26;63.52
42105;BME280;70664;51.472;5.712;2024-03-06T07:58:55;101977.88;;;15.26;63.44
42105;BME280;70664;51.472;5.712;2024-03-06T08:01:22;101977.03;;;15.27;63.58
42105;BME280;70664;51.472;5.712;2024-03-06T08:03:48;101986.53;;;15.27;63.83
42105;BME280;70664;51.472;5.712;2024-03-06T08:06:14;101989.13;;;15.27;63.78
42105;BME280;70664;51.472;5.712;2024-03-06T08:08:42;101988.25;;;15.26;63.86
42105;BME280;70664;51.472;5.712;2024-03-06T08:11:13;101996.88;;;15.28;63.83
42105;BME280;70664;51.472;5.712;2024-03-06T08:13:39;101989.97;;;15.27;63.91
42105;BME280;70664;51.472;5.712;2024-03-06T08:16:06;102001.22;;;15.30;63.82
42105;BME280;70664;51.472;5.712;2024-03-06T08:18:34;101998.63;;;15.28;63.68
42105;BME280;70664;51.472;5.712;2024-03-06T08:21:01;102002.06;;;15.28;63.91
42105;BME280;70664;51.472;5.712;2024-03-06T08:23:27;102002.06;;;15.28;63.88
42105;BME280;70664;51.472;5.712;2024-03-06T08:25:53;102001.22;;;15.30;64.35
42105;BME280;70664;51.472;5.712;2024-03-06T08:28:19;102007.28;;;15.30;64.55
42105;BME280;70664;51.472;5.712;2024-03-06T08:30:45;102006.41;;;15.31;64.77
42105;BME280;70664;51.472;5.712;2024-03-06T08:33:11;102005.56;;;15.32;64.67
42105;BME280;70664;51.472;5.712;2024-03-06T08:35:37;102012.44;;;15.32;65.01
42105;BME280;70664;51.472;5.712;2024-03-06T08:38:03;102014.19;;;15.33;64.70
42105;BME280;70664;51.472;5.712;2024-03-06T08:40:29;102021.09;;;15.32;65.27
42105;BME280;70664;51.472;5.712;2024-03-06T08:42:56;102021.09;;;15.32;65.27
42105;BME280;70664;51.472;5.712;2024-03-06T08:45:22;102021.09;;;15.32;65.34
42105;BME280;70664;51.472;5.712;2024-03-06T08:47:50;102026.25;;;15.31;65.32
42105;BME280;70664;51.472;5.712;2024-03-06T08:50:20;102029.72;;;15.33;65.43
42105;BME280;70664;51.472;5.712;2024-03-06T08:52:46;102031.44;;;15.31;65.32
42105;BME280;70664;51.472;5.712;2024-03-06T08:55:12;102033.19;;;15.30;65.59
42105;BME280;70664;51.472;5.712;2024-03-06T08:57:39;102030.59;;;15.32;65.22
42105;BME280;70664;51.472;5.712;2024-03-06T09:00:07;102032.31;;;15.33;65.52
42105;BME280;70664;51.472;5.712;2024-03-06T09:02:37;102035.75;;;15.32;65.92
42105;BME280;70664;51.472;5.712;2024-03-06T09:05:07;102040.94;;;15.32;65.99
42105;BME280;70664;51.472;5.712;2024-03-06T09:07:36;102042.69;;;15.31;66.24
42105;BME280;70664;51.472;5.712;2024-03-06T09:10:07;102048.72;;;15.32;66.52
42105;BME280;70664;51.472;5.712;2024-03-06T09:12:33;102042.66;;;15.30;66.49
42105;BME280;70664;51.472;5.712;2024-03-06T09:15:00;102047.84;;;15.30;66.32
42105;BME280;70664;51.472;5.712;2024-03-06T09:17:26;102055.63;;;15.30;66.27
42105;BME280;70664;51.472;5.712;2024-03-06T09:19:53;102055.63;;;15.33;66.43
42105;BME280;70664;51.472;5.712;2024-03-06T09:22:19;102059.94;;;15.31;66.58
42105;BME280;70664;51.472;5.712;2024-03-06T09:24:45;102059.06;;;15.28;66.50
42105;BME280;70664;51.472;5.712;2024-03-06T09:27:10;102065.13;;;15.29;66.50
42105;BME280;70664;51.472;5.712;2024-03-06T09:29:36;102065.13;;;15.26;66.92
42105;BME280;70664;51.472;5.712;2024-03-06T09:32:02;102066.84;;;15.27;66.84
42105;BME280;70664;51.472;5.712;2024-03-06T09:34:28;102071.16;;;15.26;66.82
42105;BME280;70664;51.472;5.712;2024-03-06T09:36:54;102068.59;;;15.28;67.44
42105;BME280;70664;51.472;5.712;2024-03-06T09:39:20;102076.34;;;15.28;67.31
42105;BME280;70664;51.472;5.712;2024-03-06T09:41:46;102074.63;;;15.28;67.27
42105;BME280;70664;51.472;5.712;2024-03-06T09:44:14;102079.81;;;15.27;67.17
42105;BME280;70664;51.472;5.712;2024-03-06T09:46:44;102085.00;;;15.27;67.59
42105;BME280;70664;51.472;5.712;2024-03-06T09:49:18;102085.88;;;15.29;67.69
42105;BME280;70664;51.472;5.712;2024-03-06T09:51:47;102088.47;;;15.29;67.42
42105;BME280;70664;51.472;5.712;2024-03-06T09:54:14;102091.91;;;15.31;67.49
42105;BME280;70664;51.472;5.712;2024-03-06T09:56:47;102094.50;;;15.34;67.44
42105;BME280;70664;51.472;5.712;2024-03-06T09:59:13;102092.78;;;15.38;67.29
42105;BME280;70664;51.472;5.712;2024-03-06T10:01:55;102093.66;;;15.40;67.48
42105;BME280;70664;51.472;5.712;2024-03-06T10:04:25;102101.44;;;15.38;67.89
42105;BME280;70664;51.472;5.712;2024-03-06T10:06:59;102101.44;;;15.32;67.12
42105;BME280;70664;51.472;5.712;2024-03-06T10:09:26;102104.84;;;15.28;67.15
42105;BME280;70664;51.472;5.712;2024-03-06T10:11:53;102105.72;;;15.32;66.85
42105;BME280;70664;51.472;5.712;2024-03-06T10:14:19;102099.69;;;15.31;67.08
42105;BME280;70664;51.472;5.712;2024-03-06T10:16:59;102091.94;;;15.39;66.91
42105;BME280;70664;51.472;5.712;2024-03-06T10:19:27;102098.84;;;15.45;66.97
42105;BME280;70664;51.472;5.712;2024-03-06T10:21:55;102099.75;;;15.50;66.56
42105;BME280;70664;51.472;5.712;2024-03-06T10:24:25;102098.88;;;15.52;66.74
42105;BME280;70664;51.472;5.712;2024-03-06T10:26:52;102098.06;;;15.58;66.21
42105;BME280;70664;51.472;5.712;2024-03-06T10:29:24;102102.34;;;15.62;66.28
42105;BME280;70664;51.472;5.712;2024-03-06T10:31:56;102095.47;;;15.63;66.38
42105;BME280;70664;51.472;5.712;2024-03-06T10:34:27;102104.97;;;15.64;66.48
42105;BME280;70664;51.472;5.712;2024-03-06T10:37:02;102098.06;;;15.66;66.44
42105;BME280;70664;51.472;5.712;2024-03-06T10:39:34;102110.16;;;15.64;66.24
42105;BME280;70664;51.472;5.712;2024-03-06T10:42:07;102116.19;;;15.64;65.87
42105;BME280;70664;51.472;5.712;2024-03-06T10:44:34;102100.63;;;15.60;65.75
42105;BME280;70664;51.472;5.712;2024-03-06T10:47:05;102106.69;;;15.62;65.91
42105;BME280;70664;51.472;5.712;2024-03-06T10:49:32;102115.34;;;15.64;65.71
42105;BME280;70664;51.472;5.712;2024-03-06T10:52:04;102111.00;;;15.64;65.79
42105;BME280;70664;51.472;5.712;2024-03-06T10:54:34;102104.97;;;15.67;65.70
42105;BME280;70664;51.472;5.712;2024-03-06T10:57:01;102098.91;;;15.65;65.86
42105;BME280;70664;51.472;5.712;2024-03-06T10:59:29;102102.34;;;15.62;65.71
42105;BME280;70664;51.472;5.712;2024-03-06T11:01:59;102104.97;;;15.64;65.72
42105;BME280;70664;51.472;5.712;2024-03-06T11:04:30;102108.44;;;15.66;65.66
42105;BME280;70664;51.472;5.712;2024-03-06T11:07:00;102104.09;;;15.66;65.69
42105;BME280;70664;51.472;5.712;2024-03-06T11:09:34;102110.13;;;15.65;65.94
42105;BME280;70664;51.472;5.712;2024-03-06T11:12:01;102104.97;;;15.67;65.60
42105;BME280;70664;51.472;5.712;2024-03-06T11:14:32;102108.44;;;15.69;65.88
42105;BME280;70664;51.472;5.712;2024-03-06T11:17:03;102112.75;;;15.64;66.31
42105;BME280;70664;51.472;5.712;2024-03-06T11:28:23;102117.94;;;15.67;67.13
42105;BME280;70664;51.472;5.712;2024-03-06T11:31:12;102118.78;;;15.67;67.26
42105;BME280;70664;51.472;5.712;2024-03-06T11:33:46;102123.13;;;15.64;67.59
42105;BME280;70664;51.472;5.712;2024-03-06T11:36:24;102118.81;;;15.69;67.12
42105;BME280;70664;51.472;5.712;2024-03-06T11:39:05;102123.13;;;15.68;67.11
42105;BME280;70664;51.472;5.712;2024-03-06T11:41:52;102127.44;;;15.72;67.30
42105;BME280;70664;51.472;5.712;2024-03-06T11:44:20;102132.66;;;15.71;67.23
42105;BME280;70664;51.472;5.712;2024-03-06T11:47:01;102124.84;;;15.77;67.04
42105;BME280;70664;51.472;5.712;2024-03-06T11:49:33;102128.31;;;15.75;67.46
42105;BME280;70664;51.472;5.712;2024-03-06T11:52:08;102130.06;;;15.79;67.26
42105;BME280;70664;51.472;5.712;2024-03-06T11:54:34;102128.34;;;15.73;66.99
42105;BME280;70664;51.472;5.712;2024-03-06T11:57:03;102128.34;;;15.73;67.05
42105;BME280;70664;51.472;5.712;2024-03-06T11:59:35;102135.22;;;15.72;67.12
42105;BME280;70664;51.472;5.712;2024-03-06T12:02:05;102135.25;;;15.71;66.94
42105;BME280;70664;51.472;5.712;2024-03-06T12:04:32;102127.47;;;15.71;67.11
42105;BME280;70664;51.472;5.712;2024-03-06T12:07:05;102128.31;;;15.68;67.25
42105;BME280;70664;51.472;5.712;2024-03-06T12:09:35;102129.16;;;15.66;67.07
42105;BME280;70664;51.472;5.712;2024-03-06T12:12:01;102130.03;;;15.66;66.83
42105;BME280;70664;51.472;5.712;2024-03-06T12:14:27;102125.72;;;15.64;66.88
42105;BME280;70664;51.472;5.712;2024-03-06T12:16:58;102127.41;;;15.63;67.16
42105;BME280;70664;51.472;5.712;2024-03-06T12:19:28;102123.13;;;15.67;66.54
42105;BME280;70664;51.472;5.712;2024-03-06T12:22:00;102126.56;;;15.61;66.41
42105;BME280;70664;51.472;5.712;2024-03-06T12:24:26;102129.16;;;15.63;66.39
42105;BME280;70664;51.472;5.712;2024-03-06T12:27:04;102132.63;;;15.62;66.50
42105;BME280;70664;51.472;5.712;2024-03-06T12:29:32;102127.44;;;15.62;66.24
42105;BME280;70664;51.472;5.712;2024-03-06T12:32:02;102134.34;;;15.61;66.53
42105;BME280;70664;51.472;5.712;2024-03-06T12:34:29;102134.34;;;15.64;66.11
42105;BME280;70664;51.472;5.712;2024-03-06T12:37:08;102125.69;;;15.62;66.17
42105;BME280;70664;51.472;5.712;2024-03-06T12:39:36;102126.59;;;15.69;65.72
42105;BME280;70664;51.472;5.712;2024-03-06T12:42:02;102123.97;;;15.67;66.16
42105;BME280;70664;51.472;5.712;2024-03-06T12:44:27;102129.16;;;15.67;65.68
42105;BME280;70664;51.472;5.712;2024-03-06T12:46:53;102120.53;;;15.68;65.68
42105;BME280;70664;51.472;5.712;2024-03-06T12:49:19;102120.53;;;15.71;65.86
42105;BME280;70664;51.472;5.712;2024-03-06T12:51:45;102119.69;;;15.74;65.91
42105;BME280;70664;51.472;5.712;2024-03-06T12:54:11;102122.28;;;15.76;66.12
42105;BME280;70664;51.472;5.712;2024-03-06T12:56:36;102120.56;;;15.82;65.66
42105;BME280;70664;51.472;5.712;2024-03-06T12:59:02;102118.84;;;15.84;65.57
42105;BME280;70664;51.472;5.712;2024-03-06T13:01:30;102118.84;;;15.84;65.73